Time;durP1;ratioP1;P1;durP2;ratioP2;P2;SDS_P1;SDS_P2;PMS_P1;PMS_P2;Temp;Humidity;BMP_temperature;BMP_pressure;BME280_temperature;BME280_humidity;BME280_pressure;Samples;Min_cycle;Max_cycle;Signal;HPM_P1;HPM_P2
2023/06/07 00:00:39;;;;;;;7.35;4.15;;;;;;;18.17;53.81;100702.69;1681092;85;21507;-58
2023/06/07 00:03:09;;;;;;;9.43;4.28;;;;;;;18.15;53.92;100705.70;1681131;85;21049;-58
2023/06/07 00:05:39;;;;;;;8.60;4.20;;;;;;;18.16;53.90;100695.45;1681229;85;21524;-58
2023/06/07 00:08:08;;;;;;;6.42;4.00;;;;;;;18.14;53.72;100705.40;1680693;85;21069;-58
2023/06/07 00:10:37;;;;;;;8.10;4.22;;;;;;;18.10;53.59;100699.19;1681053;85;22090;-59
2023/06/07 00:13:06;;;;;;;7.72;3.72;;;;;;;18.04;53.66;100700.45;1681150;85;21076;-59
2023/06/07 00:15:36;;;;;;;7.75;4.25;;;;;;;18.01;53.81;100704.23;1681108;85;21490;-59
2023/06/07 00:18:07;;;;;;;9.85;4.17;;;;;;;17.98;53.94;100700.02;1681374;85;21080;-59
2023/06/07 00:20:36;;;;;;;7.58;3.92;;;;;;;17.98;54.03;100700.02;1680761;85;21020;-58
2023/06/07 00:23:05;;;;;;;8.95;3.92;;;;;;;17.95;54.21;100697.72;1680957;85;21048;-59
2023/06/07 00:25:34;;;;;;;6.65;3.75;;;;;;;17.93;54.35;100700.44;1680889;85;21052;-59
2023/06/07 00:28:04;;;;;;;8.48;3.72;;;;;;;17.89;54.51;100700.61;1680813;85;21037;-59
2023/06/07 00:30:32;;;;;;;8.73;3.80;;;;;;;17.89;54.39;100703.38;1680927;85;21096;-59
2023/06/07 00:33:02;;;;;;;8.00;3.62;;;;;;;17.88;54.23;100704.46;1680384;85;21100;-59
2023/06/07 00:35:32;;;;;;;7.17;3.85;;;;;;;17.86;54.15;100701.08;1680927;85;21031;-59
2023/06/07 00:38:06;;;;;;;12.55;3.77;;;;;;;17.83;54.06;100698.25;1680708;85;21005;-58
2023/06/07 00:40:35;;;;;;;7.35;4.03;;;;;;;17.83;54.22;100702.41;1680934;85;21064;-58
2023/06/07 00:43:04;;;;;;;9.68;3.72;;;;;;;17.82;54.33;100705.41;1680878;85;21112;-59
2023/06/07 00:45:33;;;;;;;6.22;3.30;;;;;;;17.80;54.25;100703.42;1680755;85;21501;-60
2023/06/07 00:48:04;;;;;;;6.67;3.70;;;;;;;17.76;54.44;100696.12;1679860;85;21044;-59
2023/06/07 00:50:33;;;;;;;8.48;3.98;;;;;;;17.74;54.21;100704.67;1680838;85;21057;-59
2023/06/07 00:53:02;;;;;;;6.83;4.28;;;;;;;17.70;54.29;100704.00;1681026;85;21497;-58
2023/06/07 00:55:31;;;;;;;8.98;3.98;;;;;;;17.68;54.34;100705.63;1680780;85;21084;-58
2023/06/07 00:58:00;;;;;;;9.30;4.00;;;;;;;17.68;54.61;100702.01;1680533;85;21080;-59
2023/06/07 01:00:30;;;;;;;8.05;4.17;;;;;;;17.69;54.74;100700.92;1681096;85;21036;-59
2023/06/07 01:02:59;;;;;;;6.53;3.90;;;;;;;17.68;54.82;100702.01;1679891;85;21029;-59
2023/06/07 01:05:28;;;;;;;8.48;4.53;;;;;;;17.65;54.72;100702.45;1680911;85;21546;-58
2023/06/07 01:07:58;;;;;;;5.87;3.90;;;;;;;17.62;54.96;100698.77;1680837;85;21535;-59
2023/06/07 01:10:26;;;;;;;7.00;3.85;;;;;;;17.61;54.99;100700.70;1680799;85;21056;-59
2023/06/07 01:12:56;;;;;;;6.75;3.90;;;;;;;17.60;55.08;100705.09;1680497;85;21060;-59
2023/06/07 01:15:25;;;;;;;7.80;3.55;;;;;;;17.60;55.22;100707.31;1680893;85;21048;-58
2023/06/07 01:17:54;;;;;;;6.50;3.80;;;;;;;17.61;55.10;100706.23;1681114;85;21488;-59
2023/06/07 01:20:25;;;;;;;5.83;3.83;;;;;;;17.62;55.13;100702.92;1680854;85;21057;-59
2023/06/07 01:22:59;;;;;;;9.55;3.83;;;;;;;17.62;55.22;100708.47;1680636;85;21084;-58
2023/06/07 01:25:28;;;;;;;8.33;3.65;;;;;;;17.62;54.91;100706.54;1680816;85;21100;-59
2023/06/07 01:27:59;;;;;;;9.78;3.70;;;;;;;17.62;54.75;100698.77;1680667;85;21630;-58
2023/06/07 01:30:31;;;;;;;6.05;3.30;;;;;;;17.60;54.74;100704.55;1680935;85;21053;-59
2023/06/07 01:33:02;;;;;;;5.85;3.20;;;;;;;17.59;54.86;100705.63;1681292;85;21104;-59
2023/06/07 01:35:32;;;;;;;7.20;3.10;;;;;;;17.61;54.67;100709.01;1680958;85;21020;-58
2023/06/07 01:38:01;;;;;;;11.45;3.80;;;;;;;17.60;54.42;100700.93;1680701;85;21516;-59
2023/06/07 01:40:32;;;;;;;8.40;3.60;;;;;;;17.57;54.51;100700.86;1680932;85;21124;-58
2023/06/07 01:43:01;;;;;;;5.83;3.22;;;;;;;17.57;54.58;100704.17;1641455;86;21536;-58
2023/06/07 01:45:32;;;;;;;8.38;3.40;;;;;;;17.57;54.69;100702.25;1645366;87;21074;-59
2023/06/07 01:48:02;;;;;;;6.28;3.33;;;;;;;17.58;54.76;100698.94;1645296;86;21093;-59
2023/06/07 01:50:31;;;;;;;7.15;3.52;;;;;;;17.59;54.83;100697.31;1643656;86;21121;-58
2023/06/07 01:53:00;;;;;;;7.20;3.30;;;;;;;17.60;54.87;100702.31;1645553;87;21057;-58
2023/06/07 01:55:30;;;;;;;6.70;3.15;;;;;;;17.58;54.92;100704.48;1645458;87;21057;-58
2023/06/07 01:58:21;;;;;;;5.45;3.20;;;;;;;17.59;54.83;100704.78;1613301;89;21530;-59
2023/06/07 02:01:37;;;;;;;6.42;3.33;;;;;;;17.54;54.75;100704.62;1597759;88;21098;-57
2023/06/07 02:04:10;;;;;;;7.05;3.00;;;;;;;17.49;54.75;100703.94;1599149;89;21599;-59
2023/06/07 02:06:43;;;;;;;6.42;3.27;;;;;;;17.49;54.91;100700.33;1640881;87;22068;-59
2023/06/07 02:09:13;;;;;;;6.75;3.22;;;;;;;17.51;54.76;100703.70;1640729;87;21488;-59
2023/06/07 02:11:42;;;;;;;7.75;3.85;;;;;;;17.52;54.80;100706.78;1610449;88;21509;-59
2023/06/07 02:14:11;;;;;;;5.97;3.40;;;;;;;17.49;54.98;100704.48;1613696;89;21081;-59
2023/06/07 02:16:42;;;;;;;7.40;3.27;;;;;;;17.47;55.07;100706.64;1613489;88;21494;-58
2023/06/07 02:19:13;;;;;;;8.15;3.30;;;;;;;17.46;55.13;100709.95;1600029;88;21589;-59
2023/06/07 02:21:51;;;;;;;7.28;3.00;;;;;;;17.47;55.18;100709.41;1643840;87;21103;-59
2023/06/07 02:24:20;;;;;;;6.85;3.30;;;;;;;17.50;55.26;100707.02;1645292;86;21484;-58
2023/06/07 02:26:49;;;;;;;9.65;3.25;;;;;;;17.57;55.36;100720.80;1645384;87;21468;-59
2023/06/07 02:29:17;;;;;;;9.08;3.50;;;;;;;17.61;55.25;100718.70;1645468;87;21125;-59
2023/06/07 02:31:50;;;;;;;5.97;3.15;;;;;;;17.67;55.21;100720.56;1645233;87;21092;-58
2023/06/07 02:34:21;;;;;;;7.28;3.00;;;;;;;17.71;54.97;100723.70;1645328;86;21495;-58
2023/06/07 02:36:51;;;;;;;6.80;3.00;;;;;;;17.74;54.77;100721.30;1646600;87;21077;-58
2023/06/07 02:39:21;;;;;;;7.22;3.08;;;;;;;17.80;54.65;100717.28;1647938;87;21033;-59
2023/06/07 02:41:50;;;;;;;6.58;3.08;;;;;;;17.85;54.54;100716.88;1647455;87;21061;-59
2023/06/07 02:44:19;;;;;;;8.88;3.47;;;;;;;17.89;54.50;100713.08;1679237;85;21533;-57
2023/06/07 02:46:49;;;;;;;6.50;3.02;;;;;;;17.94;54.56;100711.28;1678722;85;21085;-59
2023/06/07 02:49:18;;;;;;;6.03;3.42;;;;;;;17.98;54.84;100708.88;1678835;85;21041;-59
2023/06/07 02:51:47;;;;;;;5.70;3.35;;;;;;;18.03;54.76;100704.84;1678675;85;21477;-59
2023/06/07 02:54:19;;;;;;;6.70;3.70;;;;;;;18.06;54.54;100711.30;1678767;85;21210;-59
2023/06/07 02:56:48;;;;;;;6.08;3.33;;;;;;;18.10;54.52;100708.34;1678736;85;21049;-60
2023/06/07 02:59:17;;;;;;;7.05;3.55;;;;;;;18.15;54.88;100709.02;1678911;85;21083;-59
2023/06/07 03:01:47;;;;;;;6.97;3.20;;;;;;;18.13;55.20;100713.41;1678694;85;21080;-59
2023/06/07 03:04:18;;;;;;;8.98;3.60;;;;;;;18.19;54.87;100703.29;1678793;85;21102;-59
2023/06/07 03:06:48;;;;;;;7.67;3.17;;;;;;;18.25;54.46;100703.75;1678665;85;21105;-57
2023/06/07 03:09:20;;;;;;;9.38;3.62;;;;;;;18.29;54.27;100696.09;1677553;85;21554;-58
2023/06/07 03:11:49;;;;;;;11.33;3.27;;;;;;;18.35;54.25;100698.44;1678868;85;21124;-58
2023/06/07 03:14:19;;;;;;;7.87;3.22;;;;;;;18.41;54.13;100701.63;1678835;84;21017;-58
2023/06/07 03:16:50;;;;;;;10.58;3.47;;;;;;;18.47;54.09;100699.27;1678865;85;21093;-60
2023/06/07 03:19:19;;;;;;;17.65;3.90;;;;;;;18.51;54.08;100696.86;1678713;85;21073;-58
2023/06/07 03:21:52;;;;;;;5.28;3.35;;;;;;;18.53;54.24;100705.24;1659415;85;21500;-58
2023/06/07 03:24:19;;;;;;;5.67;3.05;;;;;;;18.55;54.27;100703.61;1678747;85;21008;-59
2023/06/07 03:26:50;;;;;;;5.75;2.98;;;;;;;18.54;54.33;100706.93;1678750;85;21045;-59
2023/06/07 03:29:20;;;;;;;7.87;3.33;;;;;;;18.53;54.54;100702.47;1678720;85;21498;-58
2023/06/07 03:31:50;;;;;;;7.78;3.40;;;;;;;18.57;54.79;100704.22;1678923;85;21516;-58
2023/06/07 03:34:21;;;;;;;6.35;3.50;;;;;;;18.61;54.24;100704.91;1678789;84;21092;-58
2023/06/07 03:36:51;;;;;;;8.10;3.20;;;;;;;18.66;53.98;100706.41;1678883;85;21056;-59
2023/06/07 03:39:20;;;;;;;8.58;3.80;;;;;;;18.67;54.14;100706.70;1678717;85;21049;-59
2023/06/07 03:41:49;;;;;;;8.98;3.72;;;;;;;18.67;54.39;100717.81;1678890;85;21096;-59
2023/06/07 03:44:20;;;;;;;8.48;3.20;;;;;;;18.66;54.72;100732.78;1680163;85;21064;-58
2023/06/07 03:46:50;;;;;;;5.28;3.35;;;;;;;18.66;53.43;100728.61;1680956;85;21072;-59
2023/06/07 03:49:20;;;;;;;10.68;3.15;;;;;;;18.69;52.35;100720.34;1680842;85;21020;-59
2023/06/07 03:51:50;;;;;;;11.00;3.55;;;;;;;18.74;51.31;100726.55;1681088;85;21507;-58
2023/06/07 03:54:20;;;;;;;9.73;3.47;;;;;;;18.81;50.45;100718.94;1681094;85;21068;-57
2023/06/07 03:56:50;;;;;;;10.58;3.55;;;;;;;18.87;51.02;100723.00;1680917;85;21088;-58
2023/06/07 03:59:20;;;;;;;8.48;3.60;;;;;;;18.91;50.65;100713.09;1676570;85;21017;-58
2023/06/07 04:01:50;;;;;;;13.55;3.62;;;;;;;18.95;50.50;100715.67;1676507;85;21598;-59
2023/06/07 04:04:20;;;;;;;8.55;3.70;;;;;;;18.98;49.73;100715.73;1676682;85;21054;-60
2023/06/07 04:06:50;;;;;;;9.75;3.30;;;;;;;19.03;49.36;100711.67;1678083;85;21016;-60
2023/06/07 04:09:20;;;;;;;7.62;3.52;;;;;;;19.08;49.15;100704.83;1681056;85;21544;-59
2023/06/07 04:11:50;;;;;;;5.28;3.27;;;;;;;19.13;48.79;100730.48;1680894;85;21504;-58
2023/06/07 04:14:21;;;;;;;10.80;3.92;;;;;;;19.16;49.05;100723.04;1661633;85;21483;-59
2023/06/07 04:16:49;;;;;;;12.55;4.20;;;;;;;19.16;48.25;100716.94;1680660;85;21084;-59
2023/06/07 04:19:18;;;;;;;8.50;3.58;;;;;;;19.21;48.73;100720.37;1681002;85;21040;-59
2023/06/07 04:21:47;;;;;;;11.60;3.70;;;;;;;19.24;48.29;100720.72;1680970;85;21522;-58
2023/06/07 04:24:19;;;;;;;8.73;3.35;;;;;;;19.30;47.81;100730.00;1680863;85;21108;-59
2023/06/07 04:26:49;;;;;;;9.95;3.50;;;;;;;19.37;47.97;100734.02;1680891;85;21033;-58
2023/06/07 04:29:21;;;;;;;16.32;3.90;;;;;;;19.42;47.87;100725.78;1680869;85;21041;-58
2023/06/07 04:31:52;;;;;;;10.18;3.77;;;;;;;19.47;48.10;100730.89;1680938;85;21508;-59
2023/06/07 04:34:22;;;;;;;20.60;5.25;;;;;;;19.51;48.68;100733.50;1662604;85;21083;-58
2023/06/07 04:36:52;;;;;;;10.38;3.50;;;;;;;19.52;48.82;100734.34;1680923;85;21736;-59
2023/06/07 04:39:23;;;;;;;16.23;5.37;;;;;;;19.53;48.94;100731.35;1681088;85;21540;-59
2023/06/07 04:41:53;;;;;;;20.08;5.10;;;;;;;19.56;49.00;100735.02;1681069;85;21104;-59
2023/06/07 04:44:28;;;;;;;10.60;4.80;;;;;;;19.60;48.68;100725.64;1654633;85;21045;-59
2023/06/07 04:46:57;;;;;;;10.93;5.22;;;;;;;19.66;48.26;100716.30;1626953;87;21097;-59
2023/06/07 04:49:28;;;;;;;12.10;4.75;;;;;;;19.73;48.49;100723.94;1644179;87;21117;-59
2023/06/07 04:51:58;;;;;;;14.55;4.80;;;;;;;19.79;48.60;100727.11;1645453;87;21461;-59
2023/06/07 04:54:28;;;;;;;12.88;4.62;;;;;;;19.85;48.74;100729.44;1643776;86;21061;-59
2023/06/07 04:56:59;;;;;;;14.75;4.97;;;;;;;19.89;48.45;100731.46;1643983;87;21150;-58
2023/06/07 04:59:34;;;;;;;10.05;4.60;;;;;;;19.93;48.60;100729.86;1645345;86;21092;-58
2023/06/07 05:02:05;;;;;;;13.38;4.40;;;;;;;20.00;48.51;100733.03;1645458;86;21070;-59
2023/06/07 05:04:33;;;;;;;12.53;4.42;;;;;;;20.03;48.60;100726.41;1646003;87;21033;-60
2023/06/07 05:07:06;;;;;;;8.33;4.25;;;;;;;20.07;48.80;100733.16;1645446;87;21506;-58
2023/06/07 05:09:36;;;;;;;23.92;5.50;;;;;;;20.10;49.28;100726.25;1645638;86;21481;-60
2023/06/07 05:12:07;;;;;;;18.05;5.40;;;;;;;20.12;49.38;100732.41;1645428;87;21069;-59
2023/06/07 05:14:37;;;;;;;16.52;4.83;;;;;;;20.16;49.43;100732.22;1645201;87;21080;-60
2023/06/07 05:17:07;;;;;;;9.05;4.90;;;;;;;20.20;50.11;100734.80;1645616;87;21025;-59
2023/06/07 05:19:36;;;;;;;14.68;4.83;;;;;;;20.22;50.26;100727.88;1645387;87;21057;-59
2023/06/07 05:22:07;;;;;;;12.63;4.72;;;;;;;20.25;49.89;100730.70;1645244;87;21057;-59
2023/06/07 05:24:37;;;;;;;19.02;5.22;;;;;;;20.29;49.32;100734.66;1627781;87;21531;-60
2023/06/07 05:27:06;;;;;;;14.28;4.45;;;;;;;20.34;49.96;100728.34;1645487;87;21089;-59
2023/06/07 05:29:36;;;;;;;12.60;4.97;;;;;;;20.39;50.43;100739.03;1645560;86;21097;-59
2023/06/07 05:32:07;;;;;;;17.55;4.65;;;;;;;20.40;50.39;100739.33;1645672;86;21504;-59
2023/06/07 05:34:38;;;;;;;19.62;10.72;;;;;;;20.44;49.82;100737.72;1645545;87;21081;-59
2023/06/07 05:37:07;;;;;;;18.87;10.72;;;;;;;20.47;49.45;100733.03;1602979;88;21073;-58
2023/06/07 05:39:36;;;;;;;12.82;5.37;;;;;;;20.53;48.70;100740.37;1589013;89;21063;-59
2023/06/07 05:42:09;;;;;;;10.58;4.10;;;;;;;20.59;48.31;100734.33;1614006;88;21020;-58
2023/06/07 05:44:40;;;;;;;10.18;3.22;;;;;;;20.64;47.65;100734.41;1620068;87;21098;-59
2023/06/07 05:47:09;;;;;;;11.25;4.00;;;;;;;20.70;45.09;100731.14;1647229;87;21092;-60
2023/06/07 05:49:38;;;;;;;8.13;3.52;;;;;;;20.75;43.97;100732.05;1651110;87;21068;-60
2023/06/07 05:52:08;;;;;;;15.20;4.10;;;;;;;20.82;43.61;100728.56;1647533;86;21069;-59
2023/06/07 05:54:38;;;;;;;23.57;5.95;;;;;;;20.91;43.32;100732.30;1647825;87;21605;-59
2023/06/07 05:57:07;;;;;;;12.05;4.12;;;;;;;20.97;43.05;100736.28;1624937;88;21110;-59
2023/06/07 05:59:37;;;;;;;13.03;4.50;;;;;;;21.04;42.71;100739.72;1649765;86;21085;-59
2023/06/07 06:02:07;;;;;;;10.98;3.67;;;;;;;21.11;42.85;100733.95;1649458;86;21085;-59
2023/06/07 06:04:35;;;;;;;11.00;4.65;;;;;;;21.19;42.14;100741.31;1648627;86;21057;-60
2023/06/07 06:07:05;;;;;;;11.35;4.08;;;;;;;21.26;41.71;100745.33;1647797;87;21481;-60
2023/06/07 06:09:35;;;;;;;13.50;3.87;;;;;;;21.32;42.01;100740.10;1647667;87;21092;-59
2023/06/07 06:12:08;;;;;;;10.58;4.17;;;;;;;21.37;41.46;100743.50;1645934;87;21069;-59
2023/06/07 06:14:38;;;;;;;17.52;5.05;;;;;;;21.44;41.45;100741.36;1647629;87;21097;-61
2023/06/07 06:17:07;;;;;;;15.63;4.05;;;;;;;21.51;41.45;100744.81;1647392;86;21338;-60
2023/06/07 06:19:36;;;;;;;9.10;3.87;;;;;;;21.58;41.44;100744.05;1647571;86;21089;-59
2023/06/07 06:22:06;;;;;;;7.87;3.20;;;;;;;21.64;40.83;100744.40;1647505;87;21516;-60
2023/06/07 06:24:35;;;;;;;10.43;3.45;;;;;;;21.71;40.28;100742.24;1647799;86;21418;-61
2023/06/07 06:27:06;;;;;;;8.55;3.15;;;;;;;;;;1647462;86;21539;-60
2023/06/07 06:29:36;;;;;;;35.20;6.15;;;;;;;21.83;39.74;100737.34;1649797;86;21074;-60
2023/06/07 06:32:07;;;;;;;10.50;3.40;;;;;;;21.89;39.72;100736.00;1647397;87;21108;-61
2023/06/07 06:34:36;;;;;;;9.75;3.30;;;;;;;21.92;39.52;100738.26;1647555;86;21029;-60
2023/06/07 06:37:06;;;;;;;10.55;4.30;;;;;;;21.98;39.65;100738.59;1647614;86;21085;-59
2023/06/07 06:39:35;;;;;;;11.65;4.60;;;;;;;22.03;39.53;100743.70;1647585;87;21029;-59
2023/06/07 06:42:05;;;;;;;14.47;4.47;;;;;;;22.11;39.77;100743.25;1647519;87;21096;-60
2023/06/07 06:44:39;;;;;;;10.90;3.80;;;;;;;22.20;40.21;100747.78;1646161;86;21088;-60
2023/06/07 06:47:10;;;;;;;12.85;4.70;;;;;;;22.28;40.06;100744.50;1645439;87;21104;-61
2023/06/07 06:49:40;;;;;;;12.63;3.80;;;;;;;22.37;40.07;100747.64;1645606;86;21587;-61
2023/06/07 06:52:10;;;;;;;12.13;3.90;;;;;;;22.42;39.65;100744.89;1645480;86;21097;-60
2023/06/07 06:54:40;;;;;;;10.70;4.20;;;;;;;22.49;39.42;100746.89;1645465;87;21084;-60
2023/06/07 06:57:10;;;;;;;11.18;3.47;;;;;;;22.55;39.75;100745.82;1645528;87;21064;-58
2023/06/07 06:59:39;;;;;;;12.78;3.40;;;;;;;22.64;39.94;100748.40;1645302;87;21481;-61
2023/06/07 07:02:08;;;;;;;12.78;5.28;;;;;;;22.71;39.61;100747.60;1645304;86;21558;-60
2023/06/07 07:04:38;;;;;;;6.58;3.83;;;;;;;22.81;39.20;100755.27;1645111;87;21087;-62
2023/06/07 07:07:07;;;;;;;7.37;3.75;;;;;;;22.90;38.91;100752.25;1645100;86;21021;-59
2023/06/07 07:09:36;;;;;;;11.40;4.22;;;;;;;23.01;38.96;100755.38;1645452;87;21517;-60
2023/06/07 07:12:07;;;;;;;9.60;3.42;;;;;;;23.11;38.37;100753.75;1645302;87;21481;-59
2023/06/07 07:14:37;;;;;;;10.00;3.50;;;;;;;23.21;38.24;100756.59;1645141;87;21112;-59
2023/06/07 07:17:06;;;;;;;9.45;3.85;;;;;;;23.32;38.01;100755.52;1645605;87;21461;-59
2023/06/07 07:19:35;;;;;;;11.53;6.60;;;;;;;23.50;38.35;100751.42;1645372;86;21074;-58
2023/06/07 07:22:06;;;;;;;12.40;4.60;;;;;;;23.70;39.59;100757.11;1645370;87;21065;-60
2023/06/07 07:24:35;;;;;;;19.95;4.83;;;;;;;23.85;39.86;100759.09;1645308;87;21539;-59
2023/06/07 07:27:06;;;;;;;9.70;4.75;;;;;;;23.90;39.43;100763.30;1645248;86;21061;-59
2023/06/07 07:29:36;;;;;;;22.75;5.47;;;;;;;23.93;39.89;100761.34;1645946;87;21045;-60
2023/06/07 07:32:07;;;;;;;7.80;3.50;;;;;;;24.01;39.77;100770.59;1645172;87;21172;-60
2023/06/07 07:34:36;;;;;;;8.48;3.42;;;;;;;24.09;38.50;100774.27;1645301;87;21097;-60
2023/06/07 07:37:07;;;;;;;9.73;4.12;;;;;;;24.13;37.72;100761.40;1645311;86;21117;-60
2023/06/07 07:39:37;;;;;;;18.40;4.22;;;;;;;24.17;37.74;100762.52;1645352;86;21591;-59
2023/06/07 07:42:09;;;;;;;10.08;4.15;;;;;;;24.24;37.50;100766.44;1645611;87;21084;-59
2023/06/07 07:44:41;;;;;;;17.85;4.78;;;;;;;24.24;37.22;100767.28;1630782;86;21140;-58
2023/06/07 07:47:11;;;;;;;14.30;4.78;;;;;;;24.20;37.15;100764.77;1650118;87;21062;-62
2023/06/07 07:49:42;;;;;;;12.23;4.70;;;;;;;24.19;37.33;100770.08;1649976;87;21050;-60
2023/06/07 07:52:12;;;;;;;17.82;5.12;;;;;;;24.21;37.39;100772.05;1649862;87;21034;-60
2023/06/07 07:54:41;;;;;;;13.90;4.60;;;;;;;24.24;37.14;100779.89;1649880;87;21046;-59
2023/06/07 07:57:10;;;;;;;18.00;4.90;;;;;;;24.25;37.24;100777.92;1649833;85;21054;-61
2023/06/07 07:59:40;;;;;;;8.88;4.00;;;;;;;24.26;37.26;100777.64;1649808;87;21086;-60
2023/06/07 08:02:10;;;;;;;13.15;4.28;;;;;;;24.26;37.07;100777.64;1641579;85;21561;-59
2023/06/07 08:04:39;;;;;;;5.92;3.52;;;;;;;24.26;37.28;100776.81;1599819;89;21199;-59
2023/06/07 08:07:16;;;;;;;28.73;5.22;;;;;;;24.30;37.28;100787.77;1603139;87;21063;-62
2023/06/07 08:09:45;;;;;;;26.50;5.20;;;;;;;24.31;37.20;100780.48;1643871;86;21548;-62
2023/06/07 08:12:14;;;;;;;13.25;4.17;;;;;;;24.36;37.29;100777.40;1640749;87;21488;-60
2023/06/07 08:14:43;;;;;;;11.15;4.08;;;;;;;24.43;37.25;100780.20;1625637;87;21095;-62
2023/06/07 08:17:13;;;;;;;13.38;4.37;;;;;;;24.50;37.09;100784.12;1600804;88;21095;-62
2023/06/07 08:19:42;;;;;;;9.95;3.83;;;;;;;24.54;36.97;100790.84;1641380;87;21119;-62
2023/06/07 08:22:11;;;;;;;9.88;3.77;;;;;;;24.58;37.04;100783.55;1641586;87;21063;-61
2023/06/07 08:24:40;;;;;;;11.12;3.98;;;;;;;24.66;36.61;100785.23;1593828;88;21091;-62
2023/06/07 08:27:09;;;;;;;9.95;3.70;;;;;;;24.78;36.47;100782.72;1651623;87;21301;-62
2023/06/07 08:29:39;;;;;;;9.00;3.75;;;;;;;24.83;36.36;100786.34;1654786;86;21527;-63
2023/06/07 08:32:09;;;;;;;9.73;3.67;;;;;;;24.87;36.00;100776.81;1649629;87;21541;-61
2023/06/07 08:34:40;;;;;;;13.70;3.87;;;;;;;24.89;35.92;100782.41;1649571;85;21070;-62
2023/06/07 08:37:10;;;;;;;11.00;3.55;;;;;;;24.93;35.89;100788.30;1651659;87;21094;-61
2023/06/07 08:39:40;;;;;;;12.47;3.92;;;;;;;24.99;35.87;100786.34;1656437;87;21522;-63
2023/06/07 08:42:10;;;;;;;10.13;3.87;;;;;;;25.08;35.65;100788.84;1639281;87;21532;-63
2023/06/07 08:44:41;;;;;;;20.40;11.28;;;;;;;25.18;35.56;100784.61;1600572;88;21087;-63
2023/06/07 08:47:12;;;;;;;9.70;4.60;;;;;;;25.24;35.76;100787.11;1628821;88;21744;-62
2023/06/07 08:49:41;;;;;;;11.35;3.90;;;;;;;25.34;35.53;100776.41;1596163;89;21190;-63
2023/06/07 08:52:10;;;;;;;14.87;4.80;;;;;;;25.43;35.14;100773.32;1648168;86;21063;-62
2023/06/07 08:54:42;;;;;;;7.97;4.05;;;;;;;25.52;34.96;100780.02;1658416;86;21491;-62
2023/06/07 08:57:18;;;;;;;11.03;3.80;;;;;;;25.61;35.17;100778.84;1658498;86;21118;-63
2023/06/07 08:59:48;;;;;;;10.75;3.83;;;;;;;25.78;35.18;100774.30;1658901;86;21074;-62
2023/06/07 09:02:19;;;;;;;9.38;3.62;;;;;;;25.94;34.17;100777.27;1628240;87;21071;-63
2023/06/07 09:04:49;;;;;;;7.37;3.52;;;;;;;26.04;33.36;100777.80;1628675;88;21076;-62
2023/06/07 09:07:18;;;;;;;8.48;3.55;;;;;;;26.17;33.35;100774.34;1629027;88;21103;-62
2023/06/07 09:09:47;;;;;;;7.60;3.50;;;;;;;26.30;33.33;100774.23;1616704;87;21557;-63
2023/06/07 09:12:17;;;;;;;9.73;3.67;;;;;;;26.44;32.76;100773.30;1627702;88;21079;-63
2023/06/07 09:14:47;;;;;;;7.17;3.70;;;;;;;26.50;32.61;100772.12;1626907;87;21097;-61
2023/06/07 09:17:17;;;;;;;11.63;3.77;;;;;;;26.57;32.89;100770.37;1641741;87;21024;-62
2023/06/07 09:19:46;;;;;;;14.73;3.52;;;;;;;26.65;32.97;100769.73;1644505;87;21092;-61
2023/06/07 09:22:17;;;;;;;7.87;3.30;;;;;;;26.75;32.68;100771.63;1632754;86;21059;-62
2023/06/07 09:24:46;;;;;;;9.65;4.03;;;;;;;26.80;32.25;100761.74;1592441;87;21087;-62
2023/06/07 09:27:14;;;;;;;11.00;4.00;;;;;;;26.76;32.15;100769.93;1624856;88;21019;-62
2023/06/07 09:29:46;;;;;;;6.15;3.52;;;;;;;26.79;32.37;100760.06;1623294;87;21068;-62
2023/06/07 09:32:20;;;;;;;10.93;4.42;;;;;;;26.84;32.44;100758.61;1641801;87;21052;-61
2023/06/07 09:34:50;;;;;;;9.43;3.47;;;;;;;26.93;31.31;100758.22;1630311;86;21491;-62
2023/06/07 09:37:21;;;;;;;7.75;3.27;;;;;;;26.93;31.31;100758.22;1600039;89;21087;-63
2023/06/07 09:39:52;;;;;;;8.40;3.30;;;;;;;26.95;30.88;100762.14;1641055;86;21114;-62
2023/06/07 09:42:23;;;;;;;6.90;3.15;;;;;;;27.03;30.55;100755.33;1658408;86;21329;-62
2023/06/07 09:44:52;;;;;;;11.25;3.58;;;;;;;27.14;30.34;100761.67;1658415;86;21123;-61
2023/06/07 09:47:22;;;;;;;8.93;3.35;;;;;;;27.25;30.61;100757.59;1658302;86;21082;-62
2023/06/07 09:49:56;;;;;;;8.95;3.70;;;;;;;27.26;30.22;100750.83;1658401;86;21106;-63
2023/06/07 09:52:25;;;;;;;8.43;3.52;;;;;;;27.26;30.22;100750.83;1638506;86;21134;-65
2023/06/07 09:54:57;;;;;;;6.92;3.12;;;;;;;27.29;29.81;100757.27;1628032;88;21131;-62
2023/06/07 09:57:30;;;;;;;8.28;3.30;;;;;;;27.26;29.55;100759.27;1630705;87;21119;-65
2023/06/07 10:00:16;;;;;;;8.10;3.45;;;;;;;27.25;29.90;100756.19;1629320;88;21463;-64
2023/06/07 10:02:45;;;;;;;6.35;2.83;;;;;;;27.28;29.56;100762.63;1599154;89;21500;-63
2023/06/07 10:05:16;;;;;;;8.95;3.45;;;;;;;27.33;28.81;100756.13;1629224;88;21049;-63
2023/06/07 10:07:50;;;;;;;11.30;3.60;;;;;;;27.28;29.31;100759.80;1628343;88;21110;-63
2023/06/07 10:10:22;;;;;;;7.87;2.75;;;;;;;27.23;29.29;100751.43;1627985;88;21143;-63
2023/06/07 10:12:51;;;;;;;7.87;2.90;;;;;;;27.18;28.65;100757.69;1602419;89;21083;-64
2023/06/07 10:15:24;;;;;;;8.58;3.08;;;;;;;27.15;28.27;100756.31;1661192;85;21059;-62
2023/06/07 10:18:26;;;;;;;6.45;3.27;;;;;;;27.11;28.41;100752.42;1693729;85;21499;-62
2023/06/07 10:21:02;;;;;;;9.88;3.05;;;;;;;27.05;28.55;100746.59;1694938;83;21008;-64
2023/06/07 10:23:50;;;;;;;7.62;3.40;;;;;;;27.01;28.09;100746.92;1675768;85;21050;-63
2023/06/07 10:26:29;;;;;;;9.98;3.45;;;;;;;26.97;28.49;100743.83;1694691;85;21094;-62
2023/06/07 10:29:08;;;;;;;5.25;2.92;;;;;;;26.93;28.46;100743.32;1694818;85;21035;-63
2023/06/07 10:31:46;;;;;;;9.15;3.42;;;;;;;26.90;28.87;100739.70;1694718;85;21548;-62
2023/06/07 10:34:16;;;;;;;11.73;3.72;;;;;;;26.85;28.80;100738.63;1694697;85;21069;-64
2023/06/07 10:36:47;;;;;;;12.82;4.20;;;;;;;26.87;29.29;100741.70;1694736;83;21443;-63
2023/06/07 10:39:17;;;;;;;9.58;3.30;;;;;;;26.91;29.20;100745.03;1694484;84;21474;-61
2023/06/07 10:41:47;;;;;;;12.00;3.83;;;;;;;26.99;28.75;100740.75;1694621;84;21039;-63
2023/06/07 10:44:17;;;;;;;4.20;2.70;;;;;;;27.05;28.97;100738.98;1694731;84;21081;-63
2023/06/07 10:46:47;;;;;;;8.78;3.40;;;;;;;27.08;29.32;100736.98;1686167;84;21495;-63
2023/06/07 10:49:38;;;;;;;11.43;3.92;;;;;;;27.10;29.55;100730.48;1685305;84;21571;-64
2023/06/07 10:52:14;;;;;;;8.38;4.60;;;;;;;27.10;29.93;100733.30;1685091;84;21091;-62
2023/06/07 10:54:41;;;;;;;6.83;2.80;;;;;;;27.11;29.79;100729.92;1685450;84;21459;-63
2023/06/07 10:57:11;;;;;;;12.37;4.42;;;;;;;27.04;29.39;100728.03;1685331;85;21107;-61
2023/06/07 10:59:40;;;;;;;10.38;2.90;;;;;;;27.01;29.41;100729.47;1685470;84;21121;-63
2023/06/07 11:02:24;;;;;;;7.35;2.67;;;;;;;26.98;28.93;100724.45;1685361;85;21049;-63
2023/06/07 11:05:02;;;;;;;6.05;2.95;;;;;;;26.94;28.88;100726.15;1685172;85;21117;-62
2023/06/07 11:07:31;;;;;;;10.10;2.30;;;;;;;26.92;28.85;100722.80;1685413;84;21036;-64
2023/06/07 11:10:15;;;;;;;9.78;3.12;;;;;;;26.94;28.20;100723.91;1685321;84;21483;-63
2023/06/07 11:12:52;;;;;;;4.45;2.60;;;;;;;26.94;28.68;100720.52;1685260;85;21043;-64
2023/06/07 11:15:30;;;;;;;7.67;4.78;;;;;;;27.00;29.10;100719.36;1667493;84;21567;-65
2023/06/07 11:18:00;;;;;;;7.12;3.70;;;;;;;27.08;29.20;100720.11;1654120;86;21031;-61
2023/06/07 11:20:44;;;;;;;5.45;3.70;;;;;;;27.13;29.56;100720.04;1654053;87;21059;-63
2023/06/07 11:23:28;;;;;;;5.40;3.10;;;;;;;27.16;29.68;100719.44;1651608;87;21516;-62
2023/06/07 11:26:11;;;;;;;6.85;2.95;;;;;;;27.21;30.43;100715.72;1654380;85;21111;-64
2023/06/07 11:28:41;;;;;;;6.15;2.90;;;;;;;27.18;30.83;100713.51;1654121;86;21071;-61
2023/06/07 11:31:12;;;;;;;6.58;3.25;;;;;;;27.17;30.99;100717.47;1653680;87;21185;-63
2023/06/07 11:33:42;;;;;;;13.05;4.47;;;;;;;27.12;31.50;100709.92;1654116;87;21047;-62
2023/06/07 11:36:13;;;;;;;6.65;3.15;;;;;;;27.04;32.00;100712.56;1653126;87;21055;-61
2023/06/07 11:38:42;;;;;;;6.78;3.42;;;;;;;26.98;32.53;100713.20;1654084;85;21063;-63